createdAt,value
2019-03-03T00:01:25.127Z,26.00
2019-03-03T00:03:58.564Z,26.13
2019-03-03T00:06:31.925Z,25.57
2019-03-03T00:09:06.528Z,25.63
2019-03-03T00:11:39.941Z,28.30
2019-03-03T00:14:13.313Z,27.00
2019-03-03T00:16:46.737Z,25.30
2019-03-03T00:19:20.159Z,25.73
2019-03-03T00:21:53.544Z,25.97
2019-03-03T00:24:27.411Z,25.93
2019-03-03T00:27:00.878Z,26.30
2019-03-03T00:29:34.377Z,26.43
2019-03-03T00:32:08.606Z,23.07
2019-03-03T00:34:42.019Z,25.73
2019-03-03T00:37:17.057Z,29.33
2019-03-03T00:39:52.146Z,26.47
2019-03-03T00:42:33.348Z,26.37
2019-03-03T00:45:17.292Z,25.10
2019-03-03T00:47:55.284Z,28.60
2019-03-03T00:50:45.310Z,27.03
2019-03-03T00:53:32.114Z,26.20
2019-03-03T00:56:19.107Z,27.97
2019-03-03T00:58:59.624Z,28.17
2019-03-03T01:01:34.699Z,27.33
2019-03-03T01:04:09.862Z,27.07
2019-03-03T01:07:03.003Z,25.23
2019-03-03T01:09:54.146Z,25.87
2019-03-03T01:15:38.589Z,26.57
2019-03-03T01:18:28.991Z,23.87
2019-03-03T01:21:03.980Z,25.60
2019-03-03T01:23:45.177Z,25.77
2019-03-03T01:26:18.732Z,25.27
2019-03-03T01:28:52.244Z,25.60
2019-03-03T01:31:25.618Z,25.60
2019-03-03T01:33:59.118Z,24.00
2019-03-03T01:36:32.471Z,25.10
2019-03-03T01:39:06.399Z,23.53
2019-03-03T01:41:39.827Z,24.17
2019-03-03T01:44:13.270Z,25.63
2019-03-03T01:46:46.690Z,25.20
2019-03-03T01:49:20.192Z,22.87
2019-03-03T01:51:53.611Z,26.60
2019-03-03T01:54:27.050Z,23.20
2019-03-03T01:57:00.460Z,23.60
2019-03-03T01:59:33.917Z,23.03
2019-03-03T02:02:07.362Z,21.47
2019-03-03T02:04:40.711Z,23.40
2019-03-03T02:07:14.034Z,22.87
2019-03-03T02:09:47.407Z,21.60
2019-03-03T02:12:20.798Z,21.10
2019-03-03T02:14:54.171Z,20.07
2019-03-03T02:17:27.623Z,18.93
2019-03-03T02:20:01.118Z,19.33
2019-03-03T02:22:34.483Z,17.87
2019-03-03T02:25:10.461Z,15.67
2019-03-03T02:27:44.046Z,16.77
2019-03-03T02:30:21.701Z,16.80
2019-03-03T02:32:55.141Z,16.00
2019-03-03T02:35:28.581Z,14.83
2019-03-03T02:38:02.076Z,14.33
2019-03-03T02:40:35.558Z,14.17
2019-03-03T02:43:09.060Z,13.23
2019-03-03T02:45:42.498Z,13.20
2019-03-03T02:48:15.974Z,13.00
2019-03-03T02:50:49.444Z,13.47
2019-03-03T02:53:22.979Z,13.63
2019-03-03T02:55:56.478Z,12.63
2019-03-03T02:58:29.836Z,12.33
2019-03-03T03:01:10.688Z,12.60
2019-03-03T03:03:44.035Z,11.33
2019-03-03T03:06:19.163Z,11.10
2019-03-03T03:09:09.342Z,10.70
2019-03-03T03:11:47.128Z,9.00
2019-03-03T03:14:33.948Z,8.97
2019-03-03T03:17:15.279Z,8.93
2019-03-03T03:20:06.693Z,8.30
2019-03-03T03:22:50.366Z,8.37
2019-03-03T03:25:43.825Z,8.73
2019-03-03T03:28:19.145Z,9.23
2019-03-03T03:31:00.140Z,7.60
2019-03-03T03:33:43.965Z,8.00
2019-03-03T03:36:24.872Z,7.77
2019-03-03T03:39:05.973Z,7.30
2019-03-03T03:41:40.934Z,7.13
2019-03-03T03:44:15.915Z,7.90
2019-03-03T03:46:53.797Z,7.67
2019-03-03T03:49:40.829Z,7.53
2019-03-03T03:52:18.553Z,8.30
2019-03-03T03:55:11.742Z,8.33
2019-03-03T03:57:46.894Z,8.17
2019-03-03T04:00:22.000Z,7.87
2019-03-03T04:02:57.106Z,8.83
2019-03-03T04:05:38.083Z,8.97
2019-03-03T04:08:13.213Z,8.73
2019-03-03T04:10:48.267Z,9.07
2019-03-03T04:13:26.233Z,9.47
2019-03-03T04:16:10.674Z,8.97
2019-03-03T04:18:51.605Z,10.20
2019-03-03T04:21:26.604Z,9.27
2019-03-03T04:24:01.649Z,9.07
2019-03-03T04:26:45.489Z,9.60
2019-03-03T04:29:20.530Z,9.47
2019-03-03T04:31:58.528Z,9.87
2019-03-03T04:34:51.902Z,8.87
2019-03-03T04:37:29.791Z,9.90
2019-03-03T04:40:08.165Z,8.93
2019-03-03T04:45:41.729Z,10.10
2019-03-03T04:48:19.652Z,8.70
2019-03-03T04:50:57.165Z,8.73
2019-03-03T04:53:48.432Z,8.63
2019-03-03T04:56:32.265Z,7.73
2019-03-03T04:59:07.268Z,7.67
2019-03-03T05:01:54.268Z,7.80
2019-03-03T05:07:26.446Z,6.90
2019-03-03T05:10:04.174Z,7.50
2019-03-03T05:12:54.602Z,7.27
2019-03-03T05:15:29.658Z,6.83
2019-03-03T05:18:04.750Z,6.73
2019-03-03T05:20:51.151Z,6.57
2019-03-03T05:23:24.611Z,7.07
2019-03-03T05:25:58.086Z,6.90
2019-03-03T05:28:31.611Z,6.03
2019-03-03T05:31:05.083Z,5.73
2019-03-03T05:33:38.600Z,5.80
2019-03-03T05:36:12.029Z,6.40
2019-03-03T05:38:45.464Z,5.23
2019-03-03T05:41:18.947Z,5.67
2019-03-03T05:43:52.421Z,5.53
2019-03-03T05:46:25.894Z,5.83
2019-03-03T05:48:59.784Z,5.00
2019-03-03T05:51:34.691Z,5.30
2019-03-03T05:54:09.747Z,5.30
2019-03-03T05:56:43.221Z,5.40
2019-03-03T05:59:16.588Z,5.63
2019-03-03T06:01:50.089Z,6.17
2019-03-03T06:04:23.587Z,5.47
2019-03-03T06:06:57.194Z,5.40
2019-03-03T06:09:30.685Z,5.43
2019-03-03T06:12:04.278Z,4.97
2019-03-03T06:14:37.621Z,5.43
2019-03-03T06:17:10.985Z,5.17
2019-03-03T06:19:44.498Z,5.50
2019-03-03T06:22:17.842Z,5.77
2019-03-03T06:24:51.509Z,6.00
2019-03-03T06:27:24.980Z,4.77
2019-03-03T06:29:58.625Z,3.43
2019-03-03T06:32:32.467Z,3.07
2019-03-03T06:35:08.392Z,2.90
2019-03-03T06:37:41.800Z,2.70
2019-03-03T06:40:15.663Z,3.03
2019-03-03T06:42:49.108Z,3.13
2019-03-03T06:45:22.533Z,2.90
2019-03-03T06:47:55.977Z,3.57
2019-03-03T06:50:29.451Z,4.10
2019-03-03T06:53:02.933Z,4.67
2019-03-03T06:55:36.406Z,4.20
2019-03-03T06:58:09.987Z,5.13
2019-03-03T07:00:43.423Z,3.90
2019-03-03T07:03:16.891Z,5.90
2019-03-03T07:05:50.294Z,5.87
2019-03-03T07:08:23.723Z,5.37
2019-03-03T07:10:57.265Z,6.80
2019-03-03T07:13:30.710Z,6.50
2019-03-03T07:16:04.350Z,6.73
2019-03-03T07:18:37.775Z,7.53
2019-03-03T07:21:11.346Z,7.17
2019-03-03T07:23:44.922Z,6.27
2019-03-03T07:26:18.496Z,7.20
2019-03-03T07:28:51.940Z,7.53
2019-03-03T07:31:25.316Z,7.70
2019-03-03T07:33:58.738Z,6.50
2019-03-03T07:36:32.213Z,7.27
2019-03-03T07:39:10.520Z,6.67
2019-03-03T07:41:43.994Z,7.30
2019-03-03T07:44:17.453Z,7.00
2019-03-03T07:46:50.914Z,7.20
2019-03-03T07:49:24.340Z,7.20
2019-03-03T07:51:57.790Z,7.30
2019-03-03T07:54:31.357Z,7.97
2019-03-03T07:57:04.928Z,7.67
2019-03-03T07:59:38.443Z,7.00
2019-03-03T08:02:11.829Z,6.80
2019-03-03T08:04:45.385Z,7.30
2019-03-03T08:07:18.882Z,7.73
2019-03-03T08:09:52.359Z,7.83
2019-03-03T08:12:25.803Z,7.40
2019-03-03T08:14:59.357Z,7.00
2019-03-03T08:17:32.744Z,6.13
2019-03-03T08:20:31.299Z,6.63
2019-03-03T08:23:04.767Z,6.20
2019-03-03T08:25:38.148Z,6.50
2019-03-03T08:28:11.480Z,6.43
2019-03-03T08:30:44.856Z,7.00
2019-03-03T08:33:18.543Z,7.60
2019-03-03T08:35:52.048Z,7.87
2019-03-03T08:38:25.455Z,7.17
2019-03-03T08:40:58.908Z,7.27
2019-03-03T08:43:42.446Z,6.47
2019-03-03T08:46:35.728Z,3.60
2019-03-03T08:49:10.796Z,3.30
2019-03-03T08:51:48.754Z,2.93
2019-03-03T08:54:35.620Z,3.00
2019-03-03T08:57:26.814Z,3.00
2019-03-03T09:00:01.800Z,2.80
2019-03-03T09:02:48.555Z,2.57
2019-03-03T09:05:23.594Z,2.87
2019-03-03T09:07:58.572Z,3.00
2019-03-03T09:10:36.093Z,3.47
2019-03-03T09:13:11.073Z,4.07
2019-03-03T09:15:48.855Z,3.87
2019-03-03T09:18:32.921Z,3.80
2019-03-03T09:21:08.005Z,3.70
2019-03-03T09:23:42.972Z,3.97
2019-03-03T09:26:18.092Z,3.80
2019-03-03T09:29:02.051Z,3.43
2019-03-03T09:31:52.464Z,4.53
2019-03-03T09:34:27.510Z,4.50
2019-03-03T09:37:02.611Z,4.67
2019-03-03T09:39:43.619Z,4.00
2019-03-03T09:42:18.727Z,3.97
2019-03-03T09:45:02.578Z,4.43
2019-03-03T09:47:40.712Z,4.60
2019-03-03T09:50:24.520Z,4.53
2019-03-03T09:53:02.298Z,5.07
2019-03-03T09:55:37.305Z,6.10
2019-03-03T09:58:12.404Z,5.07
2019-03-03T10:00:50.110Z,5.10
2019-03-03T10:03:25.305Z,5.60
2019-03-03T10:06:00.366Z,5.87
2019-03-03T10:08:35.355Z,6.50
2019-03-03T10:11:13.116Z,6.80
2019-03-03T10:13:48.407Z,6.50
2019-03-03T10:16:23.558Z,7.27
2019-03-03T10:19:07.240Z,6.83
2019-03-03T10:21:56.228Z,7.10
2019-03-03T10:24:40.927Z,7.67
2019-03-03T10:27:16.017Z,6.77
2019-03-03T10:29:56.971Z,7.23
2019-03-03T10:32:34.981Z,6.73
2019-03-03T10:35:16.560Z,6.60
2019-03-03T10:38:00.505Z,7.80
2019-03-03T10:40:35.487Z,6.23
2019-03-03T10:43:19.283Z,6.87
2019-03-03T10:45:54.331Z,6.63
2019-03-03T10:48:29.498Z,7.53
2019-03-03T10:51:07.017Z,6.30
2019-03-03T10:53:42.079Z,6.27
2019-03-03T10:56:35.138Z,7.03
2019-03-03T10:59:12.656Z,6.13
2019-03-03T11:01:47.636Z,5.97
2019-03-03T11:04:38.895Z,5.70
2019-03-03T11:07:13.985Z,6.17
2019-03-03T11:09:54.813Z,6.03
2019-03-03T11:12:36.015Z,5.80
2019-03-03T11:15:18.407Z,4.93
2019-03-03T11:17:51.327Z,5.50
2019-03-03T11:20:32.528Z,4.93
2019-03-03T11:23:07.532Z,5.63
2019-03-03T11:25:42.502Z,5.90
2019-03-03T11:28:23.713Z,5.67
2019-03-03T11:30:57.206Z,6.00
2019-03-03T11:33:34.678Z,6.03
2019-03-03T11:36:18.683Z,5.63
2019-03-03T11:41:56.157Z,4.55
2019-03-03T11:44:47.616Z,4.80
2019-03-03T11:47:28.426Z,4.20
2019-03-03T11:50:03.418Z,4.43
2019-03-03T11:52:50.541Z,3.53
2019-03-03T11:55:40.719Z,3.87
2019-03-03T12:01:27.440Z,5.33
2019-03-03T12:04:02.448Z,5.00
2019-03-03T12:06:37.495Z,5.42
2019-03-03T12:09:29.277Z,5.13
2019-03-03T12:12:16.358Z,6.47
2019-03-03T12:14:51.445Z,3.73
2019-03-03T12:17:35.219Z,3.43
2019-03-03T12:20:28.816Z,4.20
2019-03-03T12:23:03.888Z,3.93
2019-03-03T12:25:41.790Z,3.97
2019-03-03T12:28:33.034Z,4.57
2019-03-03T12:31:13.904Z,3.87
2019-03-03T12:33:48.983Z,4.33
2019-03-03T12:36:26.810Z,3.63
2019-03-03T12:39:01.887Z,4.20
2019-03-03T12:41:39.320Z,3.80
2019-03-03T12:44:26.371Z,3.57
2019-03-03T12:47:10.196Z,3.70
2019-03-03T12:49:45.207Z,3.60
2019-03-03T12:52:20.363Z,3.90
2019-03-03T12:54:58.265Z,3.60
2019-03-03T12:57:36.381Z,4.05
2019-03-03T13:00:15.493Z,3.50
2019-03-03T13:03:06.855Z,3.40
2019-03-03T13:05:47.623Z,3.20
2019-03-03T13:08:25.562Z,3.40
2019-03-03T13:11:00.819Z,3.20
2019-03-03T13:13:38.453Z,4.40
2019-03-03T13:16:19.441Z,3.70
2019-03-03T13:18:57.335Z,3.43
2019-03-03T13:21:32.463Z,3.77
2019-03-03T13:24:07.614Z,3.98
2019-03-03T13:26:54.559Z,3.30
2019-03-03T13:29:29.566Z,2.83
2019-03-03T13:32:04.586Z,3.03
2019-03-03T13:34:39.686Z,2.90
2019-03-03T13:37:14.714Z,2.90
2019-03-03T13:39:49.791Z,2.47
2019-03-03T13:42:32.171Z,3.30
2019-03-03T13:45:09.777Z,2.70
2019-03-03T13:48:05.641Z,2.97
2019-03-03T13:50:39.069Z,3.30
2019-03-03T13:53:12.461Z,2.97
2019-03-03T13:55:46.810Z,3.10
2019-03-03T13:58:21.019Z,3.23
2019-03-03T14:00:54.612Z,3.07
2019-03-03T14:03:27.993Z,3.20
2019-03-03T14:06:01.588Z,3.47
2019-03-03T14:08:34.986Z,3.50
2019-03-03T14:11:08.514Z,3.70
2019-03-03T14:13:42.084Z,3.27
2019-03-03T14:16:15.441Z,3.57
2019-03-03T14:18:48.843Z,3.60
2019-03-03T14:21:22.271Z,3.23
2019-03-03T14:23:57.177Z,3.12
2019-03-03T14:26:30.804Z,3.10
2019-03-03T14:29:04.426Z,3.33
2019-03-03T14:31:37.832Z,3.00
2019-03-03T14:34:11.607Z,3.50
2019-03-03T14:36:45.004Z,3.00
2019-03-03T14:39:18.773Z,3.67
2019-03-03T14:41:52.173Z,3.10
2019-03-03T14:44:25.804Z,3.37
2019-03-03T14:46:59.206Z,3.40
2019-03-03T14:49:32.754Z,3.17
2019-03-03T14:52:06.233Z,3.47
2019-03-03T14:54:39.699Z,2.90
2019-03-03T14:57:13.201Z,3.33
2019-03-03T14:59:46.679Z,3.47
2019-03-03T15:02:20.156Z,3.90
2019-03-03T15:04:53.715Z,3.50
2019-03-03T15:07:27.140Z,3.90
2019-03-03T15:10:00.571Z,3.80
2019-03-03T15:12:33.981Z,3.77
2019-03-03T15:15:10.355Z,3.85
2019-03-03T15:17:43.834Z,4.53
2019-03-03T15:20:17.513Z,4.10
2019-03-03T15:22:50.851Z,4.15
2019-03-03T15:25:24.368Z,4.47
2019-03-03T15:27:57.809Z,4.63
2019-03-03T15:30:31.261Z,4.83
2019-03-03T15:33:04.666Z,4.60
2019-03-03T15:35:38.216Z,4.43
2019-03-03T15:38:11.586Z,4.70
2019-03-03T15:40:45.021Z,4.42
2019-03-03T15:43:18.590Z,4.42
2019-03-03T15:45:52.039Z,4.50
2019-03-03T15:48:25.446Z,4.37
2019-03-03T15:50:58.830Z,4.47
2019-03-03T15:53:32.382Z,4.17
2019-03-03T15:56:07.039Z,4.80
2019-03-03T15:58:40.975Z,4.67
2019-03-03T16:01:15.751Z,4.90
2019-03-03T16:03:49.242Z,5.13
2019-03-03T16:06:22.668Z,5.50
2019-03-03T16:08:56.025Z,3.60
2019-03-03T16:11:29.577Z,4.43
2019-03-03T16:14:03.060Z,4.23
2019-03-03T16:16:36.520Z,4.50
2019-03-03T16:19:10.034Z,3.93
2019-03-03T16:21:43.493Z,4.20
2019-03-03T16:24:16.831Z,4.20
2019-03-03T16:26:50.284Z,5.07
2019-03-03T16:29:23.690Z,4.80
2019-03-03T16:31:57.090Z,5.13
2019-03-03T16:34:30.578Z,4.40
2019-03-03T16:37:04.020Z,4.53
2019-03-03T16:39:37.437Z,4.63
2019-03-03T16:42:10.956Z,4.27
2019-03-03T16:44:44.364Z,5.10
2019-03-03T16:47:17.896Z,4.00
2019-03-03T16:49:51.294Z,4.47
2019-03-03T16:52:24.665Z,4.70
2019-03-03T16:54:58.053Z,3.93
2019-03-03T16:57:31.635Z,4.23
2019-03-03T17:00:08.186Z,4.30
2019-03-03T17:02:41.702Z,3.83
2019-03-03T17:05:20.374Z,4.43
2019-03-03T17:07:53.819Z,5.08
2019-03-03T17:10:27.305Z,3.93
2019-03-03T17:13:00.662Z,4.40
2019-03-03T17:15:34.274Z,4.23
2019-03-03T17:18:07.818Z,4.27
2019-03-03T17:20:41.245Z,3.77
2019-03-03T17:23:14.818Z,4.43
2019-03-03T17:25:48.386Z,3.60
2019-03-03T17:28:21.994Z,4.20
2019-03-03T17:30:55.412Z,3.50
2019-03-03T17:33:28.847Z,4.20
2019-03-03T17:36:02.280Z,4.30
2019-03-03T17:38:35.828Z,3.97
2019-03-03T17:41:09.215Z,3.80
2019-03-03T17:43:42.729Z,4.47
2019-03-03T17:46:16.147Z,4.20
2019-03-03T17:48:49.527Z,4.10
2019-03-03T17:51:22.939Z,4.10
2019-03-03T17:53:56.323Z,4.20
2019-03-03T17:56:29.817Z,3.80
2019-03-03T17:59:03.183Z,4.60
2019-03-03T18:01:36.601Z,4.00
2019-03-03T18:04:10.333Z,4.00
2019-03-03T18:06:44.306Z,3.53
2019-03-03T18:09:18.080Z,3.80
2019-03-03T18:11:51.795Z,4.37
2019-03-03T18:14:25.186Z,3.67
2019-03-03T18:16:58.559Z,4.00
2019-03-03T18:19:32.015Z,4.23
2019-03-03T18:22:05.535Z,4.90
2019-03-03T18:24:38.953Z,5.27
2019-03-03T18:27:12.337Z,3.93
2019-03-03T18:29:45.671Z,4.70
2019-03-03T18:32:19.039Z,4.70
2019-03-03T18:34:52.392Z,4.70
2019-03-03T18:37:25.758Z,5.07
2019-03-03T18:39:59.088Z,5.50
2019-03-03T18:42:32.487Z,4.78
2019-03-03T18:45:08.990Z,4.80
2019-03-03T18:47:42.488Z,5.30
2019-03-03T18:50:21.931Z,5.53
2019-03-03T18:52:55.368Z,5.77
2019-03-03T18:55:28.875Z,5.60
2019-03-03T18:58:02.418Z,5.40
2019-03-03T19:00:35.827Z,7.17
2019-03-03T19:03:09.264Z,4.93
2019-03-03T19:05:42.691Z,5.53
2019-03-03T19:08:16.232Z,4.97
2019-03-03T19:10:49.650Z,6.03
2019-03-03T19:13:23.182Z,5.30
2019-03-03T19:15:56.574Z,5.53
2019-03-03T19:18:29.974Z,5.13
2019-03-03T19:21:03.417Z,5.87
2019-03-03T19:23:36.924Z,6.43
2019-03-03T19:26:10.378Z,5.57
2019-03-03T19:28:43.754Z,6.00
2019-03-03T19:31:17.235Z,6.30
2019-03-03T19:33:53.365Z,6.53
2019-03-03T19:36:26.808Z,7.00
2019-03-03T19:39:00.291Z,6.57
2019-03-03T19:41:33.671Z,7.10
2019-03-03T19:44:07.441Z,6.47
2019-03-03T19:46:40.855Z,6.37
2019-03-03T19:49:14.361Z,6.60
2019-03-03T19:51:47.763Z,5.97
2019-03-03T19:54:21.234Z,6.13
2019-03-03T19:56:54.629Z,6.27
2019-03-03T19:59:28.153Z,6.00
2019-03-03T20:02:01.642Z,7.77
2019-03-03T20:04:35.041Z,8.13
2019-03-03T20:07:08.522Z,6.73
2019-03-03T20:09:41.892Z,6.67
2019-03-03T20:12:15.232Z,7.07
2019-03-03T20:14:48.707Z,6.80
2019-03-03T20:17:22.101Z,8.07
2019-03-03T20:19:55.530Z,6.53
2019-03-03T20:22:28.939Z,6.60
2019-03-03T20:25:02.450Z,6.03
2019-03-03T20:27:36.478Z,6.00
2019-03-03T20:30:20.941Z,5.57
2019-03-03T20:32:54.359Z,28.47
2019-03-03T20:35:27.801Z,68.73
2019-03-03T20:38:01.324Z,7.37
2019-03-03T20:40:34.848Z,9.60
2019-03-03T20:43:08.203Z,10.37
2019-03-03T20:45:41.742Z,10.57
2019-03-03T20:48:15.262Z,9.43
2019-03-03T20:50:48.717Z,9.73
2019-03-03T20:53:22.136Z,8.77
2019-03-03T20:55:55.580Z,9.13
2019-03-03T20:58:28.960Z,11.53
2019-03-03T21:01:02.482Z,10.30
2019-03-03T21:03:35.829Z,9.20
2019-03-03T21:06:09.580Z,9.23
2019-03-03T21:08:43.058Z,8.57
2019-03-03T21:11:16.438Z,8.78
2019-03-03T21:13:49.885Z,8.63
2019-03-03T21:16:23.294Z,8.03
2019-03-03T21:18:56.699Z,7.43
2019-03-03T21:21:30.161Z,8.10
2019-03-03T21:24:03.565Z,7.40
2019-03-03T21:26:37.001Z,7.60
2019-03-03T21:29:10.483Z,6.70
2019-03-03T21:31:43.859Z,7.20
2019-03-03T21:34:17.229Z,7.00
2019-03-03T21:36:50.592Z,7.43
2019-03-03T21:39:23.949Z,7.07
2019-03-03T21:41:57.373Z,7.07
2019-03-03T21:44:30.758Z,7.57
2019-03-03T21:47:04.167Z,6.87
2019-03-03T21:49:37.530Z,7.20
2019-03-03T21:52:10.959Z,6.73
2019-03-03T21:54:44.326Z,9.23
2019-03-03T21:57:17.762Z,9.57
2019-03-03T21:59:51.210Z,9.33
2019-03-03T22:02:24.552Z,7.03
2019-03-03T22:04:57.912Z,6.93
2019-03-03T22:07:31.363Z,7.27
2019-03-03T22:10:07.223Z,6.30
2019-03-03T22:12:40.686Z,6.37
2019-03-03T22:15:14.808Z,6.47
2019-03-03T22:17:48.166Z,6.23
2019-03-03T22:20:21.663Z,5.40
2019-03-03T22:22:55.167Z,5.33
2019-03-03T22:25:28.695Z,5.27
2019-03-03T22:28:02.098Z,5.83
2019-03-03T22:30:35.622Z,5.00
2019-03-03T22:33:09.030Z,5.10
2019-03-03T22:35:42.478Z,5.33
2019-03-03T22:38:15.807Z,5.43
2019-03-03T22:40:49.176Z,5.80
2019-03-03T22:43:22.506Z,4.90
2019-03-03T22:45:55.959Z,4.93
2019-03-03T22:48:29.312Z,5.10
2019-03-03T22:51:02.708Z,5.17
2019-03-03T22:53:36.094Z,5.33
2019-03-03T22:56:09.473Z,5.30
2019-03-03T22:58:42.812Z,4.93
2019-03-03T23:01:18.831Z,5.17
2019-03-03T23:04:01.158Z,5.17
2019-03-03T23:06:40.260Z,4.40
2019-03-03T23:09:16.787Z,5.40
2019-03-03T23:12:02.239Z,5.57
2019-03-03T23:14:53.559Z,5.47
2019-03-03T23:17:35.626Z,5.37
2019-03-03T23:20:34.448Z,6.40
2019-03-03T23:23:19.903Z,5.00
2019-03-03T23:25:53.902Z,5.33
2019-03-03T23:28:27.475Z,5.07
2019-03-03T23:31:00.925Z,5.10
2019-03-03T23:33:34.366Z,5.30
2019-03-03T23:36:07.726Z,5.33
2019-03-03T23:38:41.190Z,4.70
2019-03-03T23:41:14.883Z,5.23
2019-03-03T23:43:48.327Z,4.93
2019-03-03T23:46:21.827Z,4.77
2019-03-03T23:48:55.318Z,4.90
2019-03-03T23:51:28.841Z,4.90
2019-03-03T23:54:02.340Z,5.67
2019-03-03T23:56:35.724Z,4.43
2019-03-03T23:59:09.125Z,5.10
